sensor_id;sensor_type;location;lat;lon;timestamp;temperature;humidity
40053;DHT22;25758;48.200;16.338;2023-07-29T00:01:18;22.70;99.20
40053;DHT22;25758;48.200;16.338;2023-07-29T00:03:43;22.70;99.10
40053;DHT22;25758;48.200;16.338;2023-07-29T00:06:09;22.70;99.20
40053;DHT22;25758;48.200;16.338;2023-07-29T00:08:35;22.80;99.30
40053;DHT22;25758;48.200;16.338;2023-07-29T00:11:01;22.80;99.30
40053;DHT22;25758;48.200;16.338;2023-07-29T00:13:26;22.80;99.30
40053;DHT22;25758;48.200;16.338;2023-07-29T00:15:54;22.80;99.20
40053;DHT22;25758;48.200;16.338;2023-07-29T00:18:21;22.70;99.50
40053;DHT22;25758;48.200;16.338;2023-07-29T00:20:46;22.70;99.60
40053;DHT22;25758;48.200;16.338;2023-07-29T00:23:12;22.80;99.50
40053;DHT22;25758;48.200;16.338;2023-07-29T00:25:38;22.80;99.50
40053;DHT22;25758;48.200;16.338;2023-07-29T00:28:03;22.80;99.50
40053;DHT22;25758;48.200;16.338;2023-07-29T00:30:29;22.80;99.50
40053;DHT22;25758;48.200;16.338;2023-07-29T00:32:55;22.80;99.50
40053;DHT22;25758;48.200;16.338;2023-07-29T00:35:20;22.70;99.50
40053;DHT22;25758;48.200;16.338;2023-07-29T00:37:46;22.80;99.60
40053;DHT22;25758;48.200;16.338;2023-07-29T00:40:31;22.80;99.50
40053;DHT22;25758;48.200;16.338;2023-07-29T00:43:00;22.80;99.60
40053;DHT22;25758;48.200;16.338;2023-07-29T00:45:27;22.70;99.90
40053;DHT22;25758;48.200;16.338;2023-07-29T00:47:54;22.60;99.80
40053;DHT22;25758;48.200;16.338;2023-07-29T00:50:20;22.60;99.80
40053;DHT22;25758;48.200;16.338;2023-07-29T00:52:46;22.60;99.90
40053;DHT22;25758;48.200;16.338;2023-07-29T00:55:12;22.50;99.90
40053;DHT22;25758;48.200;16.338;2023-07-29T00:57:37;22.60;99.90
40053;DHT22;25758;48.200;16.338;2023-07-29T01:00:05;22.60;99.90
40053;DHT22;25758;48.200;16.338;2023-07-29T01:02:31;22.60;99.90
40053;DHT22;25758;48.200;16.338;2023-07-29T01:04:58;22.70;99.90
40053;DHT22;25758;48.200;16.338;2023-07-29T01:07:37;22.60;99.90
40053;DHT22;25758;48.200;16.338;2023-07-29T01:13:10;22.50;99.90
40053;DHT22;25758;48.200;16.338;2023-07-29T01:15:55;22.50;99.90
40053;DHT22;25758;48.200;16.338;2023-07-29T01:18:26;22.60;99.90
40053;DHT22;25758;48.200;16.338;2023-07-29T01:20:54;22.60;99.90
40053;DHT22;25758;48.200;16.338;2023-07-29T01:23:30;22.60;99.90
40053;DHT22;25758;48.200;16.338;2023-07-29T01:25:56;22.60;99.90
40053;DHT22;25758;48.200;16.338;2023-07-29T01:28:22;22.70;99.90
40053;DHT22;25758;48.200;16.338;2023-07-29T01:30:51;22.60;99.90
40053;DHT22;25758;48.200;16.338;2023-07-29T01:33:22;22.60;99.90
40053;DHT22;25758;48.200;16.338;2023-07-29T01:35:51;22.40;99.90
40053;DHT22;25758;48.200;16.338;2023-07-29T01:38:19;22.30;99.90
40053;DHT22;25758;48.200;16.338;2023-07-29T01:40:48;22.40;99.90
40053;DHT22;25758;48.200;16.338;2023-07-29T01:43:15;22.40;99.90
40053;DHT22;25758;48.200;16.338;2023-07-29T01:45:40;22.50;99.90
40053;DHT22;25758;48.200;16.338;2023-07-29T01:48:07;22.40;99.90
40053;DHT22;25758;48.200;16.338;2023-07-29T01:50:33;22.30;99.90
40053;DHT22;25758;48.200;16.338;2023-07-29T01:52:59;22.30;99.90
40053;DHT22;25758;48.200;16.338;2023-07-29T01:55:24;22.30;99.90
40053;DHT22;25758;48.200;16.338;2023-07-29T01:57:50;21.40;99.90
40053;DHT22;25758;48.200;16.338;2023-07-29T02:00:20;22.40;99.90
40053;DHT22;25758;48.200;16.338;2023-07-29T02:02:46;22.40;99.90
40053;DHT22;25758;48.200;16.338;2023-07-29T02:05:12;22.40;99.90
40053;DHT22;25758;48.200;16.338;2023-07-29T02:07:37;22.30;99.90
40053;DHT22;25758;48.200;16.338;2023-07-29T02:10:03;22.30;99.90
40053;DHT22;25758;48.200;16.338;2023-07-29T02:12:29;22.40;99.90
40053;DHT22;25758;48.200;16.338;2023-07-29T02:14:55;22.40;99.90
40053;DHT22;25758;48.200;16.338;2023-07-29T02:17:20;22.50;99.90
40053;DHT22;25758;48.200;16.338;2023-07-29T02:19:46;22.50;99.90
40053;DHT22;25758;48.200;16.338;2023-07-29T02:22:16;22.60;99.70
40053;DHT22;25758;48.200;16.338;2023-07-29T02:24:42;22.40;99.70
40053;DHT22;25758;48.200;16.338;2023-07-29T02:27:08;22.30;99.80
40053;DHT22;25758;48.200;16.338;2023-07-29T02:29:34;22.20;99.90
40053;DHT22;25758;48.200;16.338;2023-07-29T02:32:00;22.30;99.90
40053;DHT22;25758;48.200;16.338;2023-07-29T02:34:25;22.30;99.90
40053;DHT22;25758;48.200;16.338;2023-07-29T02:36:51;22.30;99.60
40053;DHT22;25758;48.200;16.338;2023-07-29T02:39:17;22.30;99.50
40053;DHT22;25758;48.200;16.338;2023-07-29T02:41:42;22.30;99.30
40053;DHT22;25758;48.200;16.338;2023-07-29T02:44:08;22.30;99.10
40053;DHT22;25758;48.200;16.338;2023-07-29T02:46:34;22.20;99.00
40053;DHT22;25758;48.200;16.338;2023-07-29T02:48:59;22.20;98.70
40053;DHT22;25758;48.200;16.338;2023-07-29T02:51:25;22.20;98.40
40053;DHT22;25758;48.200;16.338;2023-07-29T02:56:26;22.10;98.20
40053;DHT22;25758;48.200;16.338;2023-07-29T02:58:52;22.10;98.40
40053;DHT22;25758;48.200;16.338;2023-07-29T03:01:18;22.10;98.40
40053;DHT22;25758;48.200;16.338;2023-07-29T03:03:44;22.20;98.20
40053;DHT22;25758;48.200;16.338;2023-07-29T03:06:12;22.10;98.10
40053;DHT22;25758;48.200;16.338;2023-07-29T03:08:38;22.00;98.00
40053;DHT22;25758;48.200;16.338;2023-07-29T03:11:09;22.10;98.10
40053;DHT22;25758;48.200;16.338;2023-07-29T03:13:35;22.10;98.10
40053;DHT22;25758;48.200;16.338;2023-07-29T03:16:15;22.10;98.00
40053;DHT22;25758;48.200;16.338;2023-07-29T03:18:42;22.20;97.90
40053;DHT22;25758;48.200;16.338;2023-07-29T03:21:08;22.10;97.90
40053;DHT22;25758;48.200;16.338;2023-07-29T03:23:35;22.20;97.90
40053;DHT22;25758;48.200;16.338;2023-07-29T03:26:02;22.20;97.70
40053;DHT22;25758;48.200;16.338;2023-07-29T03:28:32;22.20;97.70
40053;DHT22;25758;48.200;16.338;2023-07-29T03:30:58;22.20;97.70
40053;DHT22;25758;48.200;16.338;2023-07-29T03:33:25;22.20;97.70
40053;DHT22;25758;48.200;16.338;2023-07-29T03:35:51;22.10;97.90
40053;DHT22;25758;48.200;16.338;2023-07-29T03:38:17;22.00;98.10
40053;DHT22;25758;48.200;16.338;2023-07-29T03:40:42;21.90;98.20
40053;DHT22;25758;48.200;16.338;2023-07-29T03:43:08;21.90;98.50
40053;DHT22;25758;48.200;16.338;2023-07-29T03:45:35;21.90;98.50
40053;DHT22;25758;48.200;16.338;2023-07-29T03:48:02;22.00;98.50
40053;DHT22;25758;48.200;16.338;2023-07-29T03:50:28;21.90;98.60
40053;DHT22;25758;48.200;16.338;2023-07-29T03:52:55;22.00;98.70
40053;DHT22;25758;48.200;16.338;2023-07-29T03:55:20;21.90;98.70
40053;DHT22;25758;48.200;16.338;2023-07-29T03:57:46;21.90;98.80
40053;DHT22;25758;48.200;16.338;2023-07-29T04:00:12;21.80;99.10
40053;DHT22;25758;48.200;16.338;2023-07-29T04:02:37;21.70;99.20
40053;DHT22;25758;48.200;16.338;2023-07-29T04:05:04;21.60;99.00
40053;DHT22;25758;48.200;16.338;2023-07-29T04:07:30;21.70;99.40
40053;DHT22;25758;48.200;16.338;2023-07-29T04:09:56;21.70;99.40
40053;DHT22;25758;48.200;16.338;2023-07-29T04:12:22;21.70;99.50
40053;DHT22;25758;48.200;16.338;2023-07-29T04:14:48;21.70;99.40
40053;DHT22;25758;48.200;16.338;2023-07-29T04:17:14;21.60;99.60
40053;DHT22;25758;48.200;16.338;2023-07-29T04:19:39;21.70;99.80
40053;DHT22;25758;48.200;16.338;2023-07-29T04:22:05;21.60;99.90
40053;DHT22;25758;48.200;16.338;2023-07-29T04:24:31;21.60;99.90
40053;DHT22;25758;48.200;16.338;2023-07-29T04:26:57;21.60;99.90
40053;DHT22;25758;48.200;16.338;2023-07-29T04:55:16;21.20;99.90
40053;DHT22;25758;48.200;16.338;2023-07-29T05:13:10;21.40;99.90
40053;DHT22;25758;48.200;16.338;2023-07-29T06:19:15;22.30;99.80
40053;DHT22;25758;48.200;16.338;2023-07-29T06:39:52;22.40;99.90
40053;DHT22;25758;48.200;16.338;2023-07-29T06:42:17;22.40;99.90
40053;DHT22;25758;48.200;16.338;2023-07-29T06:44:43;22.50;99.80
40053;DHT22;25758;48.200;16.338;2023-07-29T06:47:11;22.50;99.70
40053;DHT22;25758;48.200;16.338;2023-07-29T06:49:37;22.60;99.60
40053;DHT22;25758;48.200;16.338;2023-07-29T06:52:03;22.60;99.70
40053;DHT22;25758;48.200;16.338;2023-07-29T06:54:28;22.70;99.60
40053;DHT22;25758;48.200;16.338;2023-07-29T06:56:54;22.70;99.40
40053;DHT22;25758;48.200;16.338;2023-07-29T06:59:19;22.70;99.40
40053;DHT22;25758;48.200;16.338;2023-07-29T07:04:20;22.70;99.30
40053;DHT22;25758;48.200;16.338;2023-07-29T07:06:46;22.80;99.40
40053;DHT22;25758;48.200;16.338;2023-07-29T07:09:12;22.90;99.30
40053;DHT22;25758;48.200;16.338;2023-07-29T07:14:13;23.00;98.70
40053;DHT22;25758;48.200;16.338;2023-07-29T07:16:38;23.10;98.90
40053;DHT22;25758;48.200;16.338;2023-07-29T07:19:04;23.20;98.80
40053;DHT22;25758;48.200;16.338;2023-07-29T07:21:30;23.20;98.90
40053;DHT22;25758;48.200;16.338;2023-07-29T07:23:58;23.30;98.80
40053;DHT22;25758;48.200;16.338;2023-07-29T07:26:23;23.40;98.80
40053;DHT22;25758;48.200;16.338;2023-07-29T07:28:49;23.40;98.60
40053;DHT22;25758;48.200;16.338;2023-07-29T07:31:16;23.50;98.50
40053;DHT22;25758;48.200;16.338;2023-07-29T07:33:42;23.40;98.40
40053;DHT22;25758;48.200;16.338;2023-07-29T07:36:08;23.50;98.20
40053;DHT22;25758;48.200;16.338;2023-07-29T07:38:33;23.60;98.40
40053;DHT22;25758;48.200;16.338;2023-07-29T07:40:59;23.70;97.90
40053;DHT22;25758;48.200;16.338;2023-07-29T07:43:25;23.80;97.60
40053;DHT22;25758;48.200;16.338;2023-07-29T07:48:27;23.80;97.30
40053;DHT22;25758;48.200;16.338;2023-07-29T07:53:28;24.00;97.00
40053;DHT22;25758;48.200;16.338;2023-07-29T07:55:54;24.30;97.30
40053;DHT22;25758;48.200;16.338;2023-07-29T07:58:19;24.60;96.90
40053;DHT22;25758;48.200;16.338;2023-07-29T08:00:45;24.80;96.30
40053;DHT22;25758;48.200;16.338;2023-07-29T08:03:11;25.20;95.70
40053;DHT22;25758;48.200;16.338;2023-07-29T08:05:36;25.40;95.10
40053;DHT22;25758;48.200;16.338;2023-07-29T08:08:02;25.50;95.30
40053;DHT22;25758;48.200;16.338;2023-07-29T08:10:28;25.80;94.60
40053;DHT22;25758;48.200;16.338;2023-07-29T08:12:53;25.70;94.70
40053;DHT22;25758;48.200;16.338;2023-07-29T08:15:19;25.90;94.60
40053;DHT22;25758;48.200;16.338;2023-07-29T08:17:45;26.40;93.90
40053;DHT22;25758;48.200;16.338;2023-07-29T08:20:11;26.60;93.60
40053;DHT22;25758;48.200;16.338;2023-07-29T08:22:36;26.90;93.20
40053;DHT22;25758;48.200;16.338;2023-07-29T08:25:02;27.40;92.40
40053;DHT22;25758;48.200;16.338;2023-07-29T08:27:28;27.50;92.30
40053;DHT22;25758;48.200;16.338;2023-07-29T08:29:54;27.70;91.80
40053;DHT22;25758;48.200;16.338;2023-07-29T08:32:19;27.90;91.50
40053;DHT22;25758;48.200;16.338;2023-07-29T08:34:45;27.90;91.60
40053;DHT22;25758;48.200;16.338;2023-07-29T08:37:10;27.80;91.00
40053;DHT22;25758;48.200;16.338;2023-07-29T08:39:36;28.20;91.00
40053;DHT22;25758;48.200;16.338;2023-07-29T08:42:03;28.20;90.20
40053;DHT22;25758;48.200;16.338;2023-07-29T08:44:40;28.10;90.30
40053;DHT22;25758;48.200;16.338;2023-07-29T08:47:06;28.10;90.40
40053;DHT22;25758;48.200;16.338;2023-07-29T08:49:32;28.10;89.60
40053;DHT22;25758;48.200;16.338;2023-07-29T08:51:58;28.40;89.50
40053;DHT22;25758;48.200;16.338;2023-07-29T08:54:25;28.40;88.90
40053;DHT22;25758;48.200;16.338;2023-07-29T08:56:51;28.50;89.10
40053;DHT22;25758;48.200;16.338;2023-07-29T08:59:17;28.60;87.40
40053;DHT22;25758;48.200;16.338;2023-07-29T09:01:43;28.40;88.40
40053;DHT22;25758;48.200;16.338;2023-07-29T09:04:09;28.60;88.40
40053;DHT22;25758;48.200;16.338;2023-07-29T09:06:35;28.30;88.90
40053;DHT22;25758;48.200;16.338;2023-07-29T09:09:03;28.20;89.70
40053;DHT22;25758;48.200;16.338;2023-07-29T09:11:29;28.70;89.30
40053;DHT22;25758;48.200;16.338;2023-07-29T09:13:55;28.80;90.00
40053;DHT22;25758;48.200;16.338;2023-07-29T09:16:21;28.90;89.00
40053;DHT22;25758;48.200;16.338;2023-07-29T09:18:51;29.20;88.40
40053;DHT22;25758;48.200;16.338;2023-07-29T09:21:18;29.20;87.70
40053;DHT22;25758;48.200;16.338;2023-07-29T09:23:48;29.60;87.90
40053;DHT22;25758;48.200;16.338;2023-07-29T09:26:22;29.70;86.90
40053;DHT22;25758;48.200;16.338;2023-07-29T09:28:52;29.70;86.80
40053;DHT22;25758;48.200;16.338;2023-07-29T09:31:23;29.70;86.80
40053;DHT22;25758;48.200;16.338;2023-07-29T09:33:49;29.80;86.80
40053;DHT22;25758;48.200;16.338;2023-07-29T09:36:15;30.00;87.40
40053;DHT22;25758;48.200;16.338;2023-07-29T09:38:41;30.10;86.10
40053;DHT22;25758;48.200;16.338;2023-07-29T09:41:07;30.30;86.90
40053;DHT22;25758;48.200;16.338;2023-07-29T09:43:34;30.50;84.30
40053;DHT22;25758;48.200;16.338;2023-07-29T09:46:04;30.30;85.70
40053;DHT22;25758;48.200;16.338;2023-07-29T09:48:36;30.20;84.20
40053;DHT22;25758;48.200;16.338;2023-07-29T09:51:12;29.90;84.60
40053;DHT22;25758;48.200;16.338;2023-07-29T09:53:43;29.90;85.10
40053;DHT22;25758;48.200;16.338;2023-07-29T09:56:10;29.70;83.60
40053;DHT22;25758;48.200;16.338;2023-07-29T09:58:36;29.60;84.60
40053;DHT22;25758;48.200;16.338;2023-07-29T10:01:04;29.70;85.70
40053;DHT22;25758;48.200;16.338;2023-07-29T10:03:31;30.00;84.80
40053;DHT22;25758;48.200;16.338;2023-07-29T10:06:01;30.10;84.10
40053;DHT22;25758;48.200;16.338;2023-07-29T10:08:27;30.20;84.30
40053;DHT22;25758;48.200;16.338;2023-07-29T10:10:54;30.30;83.10
40053;DHT22;25758;48.200;16.338;2023-07-29T10:13:20;30.20;82.20
40053;DHT22;25758;48.200;16.338;2023-07-29T10:15:46;30.20;83.50
40053;DHT22;25758;48.200;16.338;2023-07-29T10:18:14;30.30;83.60
40053;DHT22;25758;48.200;16.338;2023-07-29T10:20:42;30.00;82.50
40053;DHT22;25758;48.200;16.338;2023-07-29T10:23:10;29.90;82.10
40053;DHT22;25758;48.200;16.338;2023-07-29T10:25:43;29.70;82.00
40053;DHT22;25758;48.200;16.338;2023-07-29T10:28:11;29.90;82.70
40053;DHT22;25758;48.200;16.338;2023-07-29T10:30:38;30.00;81.80
40053;DHT22;25758;48.200;16.338;2023-07-29T10:33:04;29.60;82.80
40053;DHT22;25758;48.200;16.338;2023-07-29T10:35:33;29.60;81.50
40053;DHT22;25758;48.200;16.338;2023-07-29T10:37:59;29.60;81.00
40053;DHT22;25758;48.200;16.338;2023-07-29T10:40:25;29.30;81.10
40053;DHT22;25758;48.200;16.338;2023-07-29T10:43:08;29.30;81.10
40053;DHT22;25758;48.200;16.338;2023-07-29T10:45:39;29.50;81.20
40053;DHT22;25758;48.200;16.338;2023-07-29T10:53:53;29.60;80.20
40053;DHT22;25758;48.200;16.338;2023-07-29T10:56:33;29.20;80.20
40053;DHT22;25758;48.200;16.338;2023-07-29T10:59:22;29.10;81.30
40053;DHT22;25758;48.200;16.338;2023-07-29T11:01:53;29.00;80.30
40053;DHT22;25758;48.200;16.338;2023-07-29T11:12:37;29.40;80.20
40053;DHT22;25758;48.200;16.338;2023-07-29T11:15:04;29.60;80.20
40053;DHT22;25758;48.200;16.338;2023-07-29T11:17:33;29.80;79.80
40053;DHT22;25758;48.200;16.338;2023-07-29T11:20:03;29.60;79.40
40053;DHT22;25758;48.200;16.338;2023-07-29T11:22:29;29.70;79.20
40053;DHT22;25758;48.200;16.338;2023-07-29T11:24:55;29.80;79.50
40053;DHT22;25758;48.200;16.338;2023-07-29T11:27:21;29.70;78.80
40053;DHT22;25758;48.200;16.338;2023-07-29T11:29:47;29.70;79.50
40053;DHT22;25758;48.200;16.338;2023-07-29T11:32:13;29.60;79.60
40053;DHT22;25758;48.200;16.338;2023-07-29T11:34:39;29.60;79.60
40053;DHT22;25758;48.200;16.338;2023-07-29T11:37:09;29.50;80.40
40053;DHT22;25758;48.200;16.338;2023-07-29T11:39:43;29.40;79.60
40053;DHT22;25758;48.200;16.338;2023-07-29T11:42:13;29.30;79.60
40053;DHT22;25758;48.200;16.338;2023-07-29T11:44:39;29.30;80.20
40053;DHT22;25758;48.200;16.338;2023-07-29T11:47:09;29.30;79.90
40053;DHT22;25758;48.200;16.338;2023-07-29T11:49:35;29.30;80.30
40053;DHT22;25758;48.200;16.338;2023-07-29T11:52:02;29.30;80.60
40053;DHT22;25758;48.200;16.338;2023-07-29T11:54:28;29.30;80.20
40053;DHT22;25758;48.200;16.338;2023-07-29T11:56:55;29.40;80.60
40053;DHT22;25758;48.200;16.338;2023-07-29T11:59:21;29.50;78.50
40053;DHT22;25758;48.200;16.338;2023-07-29T12:01:46;29.40;78.20
40053;DHT22;25758;48.200;16.338;2023-07-29T12:04:13;29.30;78.20
40053;DHT22;25758;48.200;16.338;2023-07-29T12:06:39;29.20;78.00
40053;DHT22;25758;48.200;16.338;2023-07-29T12:09:05;29.20;78.20
40053;DHT22;25758;48.200;16.338;2023-07-29T12:11:32;29.20;78.10
40053;DHT22;25758;48.200;16.338;2023-07-29T12:13:59;29.30;78.40
40053;DHT22;25758;48.200;16.338;2023-07-29T12:16:25;29.40;77.90
40053;DHT22;25758;48.200;16.338;2023-07-29T12:18:51;29.50;78.20
40053;DHT22;25758;48.200;16.338;2023-07-29T12:21:20;29.50;78.40
40053;DHT22;25758;48.200;16.338;2023-07-29T12:23:46;29.40;78.70
40053;DHT22;25758;48.200;16.338;2023-07-29T12:26:11;29.40;79.30
40053;DHT22;25758;48.200;16.338;2023-07-29T12:28:37;29.20;78.70
40053;DHT22;25758;48.200;16.338;2023-07-29T12:31:07;29.20;79.20
40053;DHT22;25758;48.200;16.338;2023-07-29T12:33:36;29.40;80.00
40053;DHT22;25758;48.200;16.338;2023-07-29T12:36:04;29.60;80.20
40053;DHT22;25758;48.200;16.338;2023-07-29T12:38:32;29.70;80.10
40053;DHT22;25758;48.200;16.338;2023-07-29T12:40:57;29.80;79.50
40053;DHT22;25758;48.200;16.338;2023-07-29T12:43:23;29.90;78.90
40053;DHT22;25758;48.200;16.338;2023-07-29T12:45:50;29.90;79.40
40053;DHT22;25758;48.200;16.338;2023-07-29T12:48:15;29.90;79.20
40053;DHT22;25758;48.200;16.338;2023-07-29T12:50:41;30.00;79.70
40053;DHT22;25758;48.200;16.338;2023-07-29T12:53:07;30.00;78.00
40053;DHT22;25758;48.200;16.338;2023-07-29T12:55:35;29.80;76.80
40053;DHT22;25758;48.200;16.338;2023-07-29T12:58:01;29.60;76.80
40053;DHT22;25758;48.200;16.338;2023-07-29T13:00:27;29.60;77.50
40053;DHT22;25758;48.200;16.338;2023-07-29T13:02:53;29.50;78.40
40053;DHT22;25758;48.200;16.338;2023-07-29T13:05:19;29.40;78.60
40053;DHT22;25758;48.200;16.338;2023-07-29T13:07:45;29.30;78.80
40053;DHT22;25758;48.200;16.338;2023-07-29T13:10:10;29.30;77.40
40053;DHT22;25758;48.200;16.338;2023-07-29T13:12:36;29.40;77.10
40053;DHT22;25758;48.200;16.338;2023-07-29T13:15:02;29.40;75.10
40053;DHT22;25758;48.200;16.338;2023-07-29T13:17:28;29.30;75.40
40053;DHT22;25758;48.200;16.338;2023-07-29T13:19:53;29.30;74.40
40053;DHT22;25758;48.200;16.338;2023-07-29T13:22:20;29.10;74.30
40053;DHT22;25758;48.200;16.338;2023-07-29T13:24:46;29.00;75.10
40053;DHT22;25758;48.200;16.338;2023-07-29T13:27:12;28.80;75.50
40053;DHT22;25758;48.200;16.338;2023-07-29T13:29:38;28.70;76.50
40053;DHT22;25758;48.200;16.338;2023-07-29T13:32:04;28.60;77.50
40053;DHT22;25758;48.200;16.338;2023-07-29T13:34:30;28.60;77.70
40053;DHT22;25758;48.200;16.338;2023-07-29T13:36:56;28.50;77.40
40053;DHT22;25758;48.200;16.338;2023-07-29T13:39:21;28.50;77.10
40053;DHT22;25758;48.200;16.338;2023-07-29T13:41:47;28.40;78.60
40053;DHT22;25758;48.200;16.338;2023-07-29T13:44:12;28.30;78.40
40053;DHT22;25758;48.200;16.338;2023-07-29T13:46:38;28.40;78.50
40053;DHT22;25758;48.200;16.338;2023-07-29T13:49:04;28.40;78.30
40053;DHT22;25758;48.200;16.338;2023-07-29T13:51:29;28.30;78.70
40053;DHT22;25758;48.200;16.338;2023-07-29T13:53:55;28.30;78.30
40053;DHT22;25758;48.200;16.338;2023-07-29T13:56:22;28.30;78.60
40053;DHT22;25758;48.200;16.338;2023-07-29T13:58:47;28.20;79.40
40053;DHT22;25758;48.200;16.338;2023-07-29T14:01:13;28.30;80.20
40053;DHT22;25758;48.200;16.338;2023-07-29T14:03:39;28.40;80.50
40053;DHT22;25758;48.200;16.338;2023-07-29T14:06:04;28.40;80.90
40053;DHT22;25758;48.200;16.338;2023-07-29T14:08:30;28.30;80.10
40053;DHT22;25758;48.200;16.338;2023-07-29T14:10:56;28.30;80.30
40053;DHT22;25758;48.200;16.338;2023-07-29T14:13:21;28.30;80.90
40053;DHT22;25758;48.200;16.338;2023-07-29T14:15:47;28.30;81.20
40053;DHT22;25758;48.200;16.338;2023-07-29T14:18:12;28.30;81.20
40053;DHT22;25758;48.200;16.338;2023-07-29T14:20:38;28.30;81.10
40053;DHT22;25758;48.200;16.338;2023-07-29T14:23:04;28.30;80.90
40053;DHT22;25758;48.200;16.338;2023-07-29T14:25:30;28.30;81.40
40053;DHT22;25758;48.200;16.338;2023-07-29T14:27:55;28.30;81.00
40053;DHT22;25758;48.200;16.338;2023-07-29T14:30:21;28.20;80.40
40053;DHT22;25758;48.200;16.338;2023-07-29T14:32:46;28.30;81.10
40053;DHT22;25758;48.200;16.338;2023-07-29T14:35:12;28.30;81.00
40053;DHT22;25758;48.200;16.338;2023-07-29T14:37:38;28.30;80.70
40053;DHT22;25758;48.200;16.338;2023-07-29T14:40:04;28.20;81.40
40053;DHT22;25758;48.200;16.338;2023-07-29T14:42:30;28.30;81.20
40053;DHT22;25758;48.200;16.338;2023-07-29T14:44:56;28.30;81.10
40053;DHT22;25758;48.200;16.338;2023-07-29T14:47:21;28.30;80.50
40053;DHT22;25758;48.200;16.338;2023-07-29T14:49:47;28.30;80.50
40053;DHT22;25758;48.200;16.338;2023-07-29T14:52:12;28.30;81.40
40053;DHT22;25758;48.200;16.338;2023-07-29T14:54:38;28.30;81.80
40053;DHT22;25758;48.200;16.338;2023-07-29T14:57:06;28.30;82.00
40053;DHT22;25758;48.200;16.338;2023-07-29T14:59:32;28.30;81.70
40053;DHT22;25758;48.200;16.338;2023-07-29T15:01:58;28.30;81.40
40053;DHT22;25758;48.200;16.338;2023-07-29T15:04:23;28.20;80.80
40053;DHT22;25758;48.200;16.338;2023-07-29T15:06:49;28.10;81.20
40053;DHT22;25758;48.200;16.338;2023-07-29T15:09:15;28.10;81.30
40053;DHT22;25758;48.200;16.338;2023-07-29T15:11:40;28.10;81.70
40053;DHT22;25758;48.200;16.338;2023-07-29T15:14:07;28.10;81.50
40053;DHT22;25758;48.200;16.338;2023-07-29T15:16:32;28.00;81.70
40053;DHT22;25758;48.200;16.338;2023-07-29T15:19:03;28.00;81.80
40053;DHT22;25758;48.200;16.338;2023-07-29T15:21:29;28.00;81.70
40053;DHT22;25758;48.200;16.338;2023-07-29T15:23:55;28.00;81.70
40053;DHT22;25758;48.200;16.338;2023-07-29T15:26:21;28.00;82.30
40053;DHT22;25758;48.200;16.338;2023-07-29T15:28:46;27.90;82.60
40053;DHT22;25758;48.200;16.338;2023-07-29T15:31:15;27.80;83.10
40053;DHT22;25758;48.200;16.338;2023-07-29T15:33:40;27.80;83.70
40053;DHT22;25758;48.200;16.338;2023-07-29T15:36:06;27.90;83.50
40053;DHT22;25758;48.200;16.338;2023-07-29T15:38:32;28.00;83.70
40053;DHT22;25758;48.200;16.338;2023-07-29T15:40:58;28.00;83.70
40053;DHT22;25758;48.200;16.338;2023-07-29T15:43:24;28.10;83.80
40053;DHT22;25758;48.200;16.338;2023-07-29T15:45:50;28.10;84.20
40053;DHT22;25758;48.200;16.338;2023-07-29T15:48:15;28.00;84.60
40053;DHT22;25758;48.200;16.338;2023-07-29T15:50:42;28.00;84.80
40053;DHT22;25758;48.200;16.338;2023-07-29T15:53:07;28.10;84.60
40053;DHT22;25758;48.200;16.338;2023-07-29T15:55:33;28.10;84.70
40053;DHT22;25758;48.200;16.338;2023-07-29T15:57:59;28.10;85.10
40053;DHT22;25758;48.200;16.338;2023-07-29T16:00:24;28.20;85.30
40053;DHT22;25758;48.200;16.338;2023-07-29T16:02:50;28.40;85.00
40053;DHT22;25758;48.200;16.338;2023-07-29T16:05:16;28.30;84.40
40053;DHT22;25758;48.200;16.338;2023-07-29T16:07:42;28.20;84.20
40053;DHT22;25758;48.200;16.338;2023-07-29T16:10:08;28.30;84.00
40053;DHT22;25758;48.200;16.338;2023-07-29T16:12:34;28.30;84.30
40053;DHT22;25758;48.200;16.338;2023-07-29T16:15:07;28.20;84.60
40053;DHT22;25758;48.200;16.338;2023-07-29T16:17:33;28.10;84.70
40053;DHT22;25758;48.200;16.338;2023-07-29T16:20:01;28.10;84.90
40053;DHT22;25758;48.200;16.338;2023-07-29T16:22:26;28.20;85.20
40053;DHT22;25758;48.200;16.338;2023-07-29T16:24:52;28.10;85.00
40053;DHT22;25758;48.200;16.338;2023-07-29T16:27:18;28.00;85.00
40053;DHT22;25758;48.200;16.338;2023-07-29T16:29:44;28.10;85.40
40053;DHT22;25758;48.200;16.338;2023-07-29T16:32:10;28.10;85.20
40053;DHT22;25758;48.200;16.338;2023-07-29T16:34:37;28.10;85.00
40053;DHT22;25758;48.200;16.338;2023-07-29T16:37:07;28.10;85.40
40053;DHT22;25758;48.200;16.338;2023-07-29T16:39:33;27.90;85.40
40053;DHT22;25758;48.200;16.338;2023-07-29T16:41:59;27.90;85.50
40053;DHT22;25758;48.200;16.338;2023-07-29T16:44:25;27.90;85.70
40053;DHT22;25758;48.200;16.338;2023-07-29T16:46:51;27.90;85.80
40053;DHT22;25758;48.200;16.338;2023-07-29T16:49:17;27.90;86.00
40053;DHT22;25758;48.200;16.338;2023-07-29T16:51:43;27.90;86.30
40053;DHT22;25758;48.200;16.338;2023-07-29T16:54:09;27.90;85.80
40053;DHT22;25758;48.200;16.338;2023-07-29T16:56:35;27.80;86.20
40053;DHT22;25758;48.200;16.338;2023-07-29T16:59:00;27.80;85.70
40053;DHT22;25758;48.200;16.338;2023-07-29T17:01:26;27.70;85.30
40053;DHT22;25758;48.200;16.338;2023-07-29T17:03:52;27.50;85.10
40053;DHT22;25758;48.200;16.338;2023-07-29T17:06:17;27.40;85.80
40053;DHT22;25758;48.200;16.338;2023-07-29T17:08:43;27.40;85.50
40053;DHT22;25758;48.200;16.338;2023-07-29T17:11:08;27.20;83.50
40053;DHT22;25758;48.200;16.338;2023-07-29T17:13:34;27.10;82.60
40053;DHT22;25758;48.200;16.338;2023-07-29T17:15:59;27.00;82.50
40053;DHT22;25758;48.200;16.338;2023-07-29T17:18:25;26.90;83.30
40053;DHT22;25758;48.200;16.338;2023-07-29T17:20:51;26.90;83.10
40053;DHT22;25758;48.200;16.338;2023-07-29T17:23:17;26.90;82.30
40053;DHT22;25758;48.200;16.338;2023-07-29T17:25:43;24.70;81.70
40053;DHT22;25758;48.200;16.338;2023-07-29T17:28:08;26.60;83.60
40053;DHT22;25758;48.200;16.338;2023-07-29T17:30:34;26.50;83.90
40053;DHT22;25758;48.200;16.338;2023-07-29T17:33:03;26.50;84.40
40053;DHT22;25758;48.200;16.338;2023-07-29T17:35:30;26.50;84.50
40053;DHT22;25758;48.200;16.338;2023-07-29T17:37:56;26.50;84.80
40053;DHT22;25758;48.200;16.338;2023-07-29T17:40:22;26.40;84.80
40053;DHT22;25758;48.200;16.338;2023-07-29T17:42:47;26.40;85.20
40053;DHT22;25758;48.200;16.338;2023-07-29T17:45:13;26.30;85.20